Hauptseite
METAR-TAF:

METAR-TAF

Flughäfen :

Flughafen Leipzig/Halle

Leipzig, Deutschland

Breite: 51-25N, Länge: 012-14E, Höhe: 144 m

Beobachtung

Neuester Wetterbericht von vor 23 Minuten, um 03:20 UTC
Wind 2 kt aus West
Temperatur 17°C
Luftfeuchtigkeit 88%
Luftdruck 1023 hPa
Sichtweite 10 km oder mehr
Durchbrochene Bewölkung in der Höhe von 3400 ft

METAR: EDDP 200320Z 28002KT 9999 BKN034 17/15 Q1023 NOSIG

Zeit: 05:43 (03:43 UTC)

Prognose

Neuester Wetterbericht von vor 4 Stunden und 43 Minuten, um 23:00 UTC
Gültige Prognose vom 20 um 00 UTC bis 20 um 24 UTC
Wind 4 kt aus Nordwest
Sichtweite 10 km oder mehr
Aufgelockert bewölkt in der Höhe von 4000 ft
Übergehend zu
vom 20 um 06 UTC bis 20 um 08 UTC
Wind 6 kt aus Süd/Südwest
Übergehend zu
vom 20 um 11 UTC bis 20 um 13 UTC
Wind 7 kt aus West

TAF: EDDP 192300Z 2000/2024 32004KT 9999 SCT040 BECMG 2006/2008 20006KT BECMG 2011/2013 27007KT

Wetterbeobachtungen und Prognosen von mehr als 4000 Flughäfen (METAR und TAF Bericht).

Die verfügbaren Stationen werden durch gelbe und rote Markierungen auf der Karte dargestellt.

Führen Sie die Maus auf sie, um den Namen der Station zu sehen.

Darauf klicken, um die Beobachtung von Wetterbeobachtungen und Prognosen zu sehen.

Um die Karte zu ändern : klicken Sie auf den grünen Tasten mit einem schwarzen Kreuz Zum Vergrößern, auf den grünen Button mit einem Gedankenstrich zu verkleinern, oder auf die grünen Pfeile für benachbarte Karten.


METAR-TAF: